createdAt,value
2019-01-14T00:00:34.359Z,4.20
2019-01-14T00:06:15.436Z,4.20
2019-01-14T00:08:56.726Z,4.20
2019-01-14T00:11:38.359Z,4.20
2019-01-14T00:14:19.599Z,4.20
2019-01-14T00:17:00.786Z,4.20
2019-01-14T00:19:42.068Z,4.20
2019-01-14T00:22:23.307Z,4.30
2019-01-14T00:25:04.871Z,4.20
2019-01-14T00:27:46.407Z,4.20
2019-01-14T00:30:27.731Z,4.20
2019-01-14T00:33:09.594Z,4.20
2019-01-14T00:35:51.086Z,4.20
2019-01-14T00:38:32.637Z,4.20
2019-01-14T00:41:13.927Z,4.20
2019-01-14T00:43:55.115Z,4.30
2019-01-14T00:46:36.633Z,4.20
2019-01-14T00:49:18.218Z,4.20
2019-01-14T00:51:59.399Z,4.20
2019-01-14T00:54:41.359Z,4.20
2019-01-14T00:57:22.605Z,4.20
2019-01-14T01:00:04.699Z,4.20
2019-01-14T01:02:46.576Z,4.20
2019-01-14T01:05:28.638Z,4.20
2019-01-14T01:08:09.935Z,4.20
2019-01-14T01:10:51.596Z,4.20
2019-01-14T01:13:32.860Z,4.20
2019-01-14T01:16:14.654Z,4.20
2019-01-14T01:18:56.084Z,4.20
2019-01-14T01:21:37.342Z,4.20
2019-01-14T01:24:18.479Z,4.20
2019-01-14T01:26:59.771Z,4.20
2019-01-14T01:29:41.127Z,4.20
2019-01-14T01:32:22.724Z,4.20
2019-01-14T01:35:04.064Z,4.20
2019-01-14T01:37:45.283Z,4.20
2019-01-14T01:40:26.437Z,4.30
2019-01-14T01:43:07.958Z,4.30
2019-01-14T01:45:49.359Z,4.30
2019-01-14T01:48:30.585Z,4.30
2019-01-14T01:51:11.776Z,4.30
2019-01-14T01:53:53.456Z,4.30
2019-01-14T01:56:34.990Z,4.30
2019-01-14T01:59:16.534Z,4.30
2019-01-14T02:01:57.677Z,4.30
2019-01-14T02:04:38.971Z,4.30
2019-01-14T02:07:20.180Z,4.30
2019-01-14T02:10:01.432Z,4.30
2019-01-14T02:12:42.819Z,4.30
2019-01-14T02:15:23.931Z,4.30
2019-01-14T02:18:05.247Z,4.30
2019-01-14T02:20:46.608Z,4.30
2019-01-14T02:23:27.842Z,4.30
2019-01-14T02:26:09.403Z,4.30
2019-01-14T02:28:51.159Z,4.30
2019-01-14T02:31:33.355Z,4.30
2019-01-14T02:34:14.711Z,4.30
2019-01-14T02:36:56.124Z,4.30
2019-01-14T02:39:37.424Z,4.20
2019-01-14T02:42:19.003Z,4.20
2019-01-14T02:45:00.273Z,4.20
2019-01-14T02:47:41.515Z,4.20
2019-01-14T02:50:22.663Z,4.20
2019-01-14T02:53:03.895Z,4.20
2019-01-14T02:55:45.443Z,4.20
2019-01-14T02:58:26.838Z,4.20
2019-01-14T03:01:08.412Z,4.20
2019-01-14T03:03:49.695Z,4.20
2019-01-14T03:06:31.727Z,4.20
2019-01-14T03:09:13.388Z,4.20
2019-01-14T03:11:53.054Z,4.20
2019-01-14T03:14:34.971Z,4.20
2019-01-14T03:17:16.967Z,4.20
2019-01-14T03:19:58.295Z,4.20
2019-01-14T03:22:39.522Z,4.20
2019-01-14T03:25:20.818Z,4.20
2019-01-14T03:28:02.295Z,4.20
2019-01-14T03:30:43.564Z,4.20
2019-01-14T03:33:24.802Z,4.20
2019-01-14T03:36:05.988Z,4.20
2019-01-14T03:38:47.212Z,4.20
2019-01-14T03:41:29.217Z,4.20
2019-01-14T03:44:11.535Z,4.20
2019-01-14T03:46:52.667Z,4.20
2019-01-14T03:49:32.355Z,4.20
2019-01-14T03:52:14.282Z,4.10
2019-01-14T03:54:55.516Z,4.20
2019-01-14T03:57:37.083Z,4.20
2019-01-14T04:00:19.095Z,4.20
2019-01-14T04:03:00.639Z,4.20
2019-01-14T04:05:42.083Z,4.20
2019-01-14T04:08:24.359Z,4.20
2019-01-14T04:11:05.846Z,4.20
2019-01-14T04:13:47.142Z,4.20
2019-01-14T04:16:28.474Z,4.20
2019-01-14T04:19:09.963Z,4.20
2019-01-14T04:21:51.175Z,4.20
2019-01-14T04:24:32.349Z,4.30
2019-01-14T04:27:13.711Z,4.30
2019-01-14T04:29:55.691Z,4.30
2019-01-14T04:32:36.881Z,4.30
2019-01-14T04:35:18.339Z,4.30
2019-01-14T04:37:59.599Z,4.30
2019-01-14T04:40:40.895Z,4.30
2019-01-14T04:43:22.115Z,4.30
2019-01-14T04:46:03.356Z,4.30
2019-01-14T04:48:44.991Z,4.30
2019-01-14T04:51:27.527Z,4.30
2019-01-14T04:54:09.035Z,4.30
2019-01-14T04:56:50.251Z,4.30
2019-01-14T04:59:31.807Z,4.30
2019-01-14T05:02:13.185Z,4.30
2019-01-14T05:04:55.323Z,4.30
2019-01-14T05:07:34.936Z,4.30
2019-01-14T05:10:16.898Z,4.30
2019-01-14T05:12:58.280Z,4.30
2019-01-14T05:15:39.520Z,4.30
2019-01-14T05:18:20.867Z,4.20
2019-01-14T05:21:02.914Z,4.30
2019-01-14T05:23:44.202Z,4.30
2019-01-14T05:26:25.939Z,4.20
2019-01-14T05:29:07.519Z,4.20
2019-01-14T05:31:48.785Z,4.20
2019-01-14T05:34:30.410Z,4.20
2019-01-14T05:37:11.955Z,4.20
2019-01-14T05:39:53.316Z,4.20
2019-01-14T05:42:34.678Z,4.20
2019-01-14T05:45:16.409Z,4.20
2019-01-14T05:47:58.402Z,4.20
2019-01-14T05:50:39.739Z,4.20
2019-01-14T05:53:20.967Z,4.20
2019-01-14T05:56:02.152Z,4.20
2019-01-14T05:58:43.419Z,4.20
2019-01-14T06:01:25.055Z,4.20
2019-01-14T06:04:06.851Z,4.20
2019-01-14T06:06:48.515Z,4.20
2019-01-14T06:09:30.188Z,4.20
2019-01-14T06:12:11.460Z,4.20
2019-01-14T06:14:52.757Z,4.20
2019-01-14T06:17:33.982Z,4.20
2019-01-14T06:20:15.634Z,4.20
2019-01-14T06:22:55.251Z,4.20
2019-01-14T06:25:36.823Z,4.20
2019-01-14T06:28:19.091Z,4.20
2019-01-14T06:31:00.951Z,4.20
2019-01-14T06:33:42.131Z,4.20
2019-01-14T06:36:23.311Z,4.20
2019-01-14T06:39:04.598Z,4.20
2019-01-14T06:41:44.172Z,4.20
2019-01-14T06:44:25.352Z,4.20
2019-01-14T06:47:06.954Z,4.20
2019-01-14T06:49:49.096Z,4.20
2019-01-14T06:52:31.183Z,4.20
2019-01-14T06:55:12.616Z,4.20
2019-01-14T06:57:54.246Z,4.20
2019-01-14T07:00:35.767Z,4.20
2019-01-14T07:03:17.055Z,4.20
2019-01-14T07:05:58.300Z,4.20
2019-01-14T07:08:39.490Z,4.20
2019-01-14T07:11:21.991Z,4.20
2019-01-14T07:14:03.419Z,4.20
2019-01-14T07:16:42.959Z,4.20
2019-01-14T07:19:22.576Z,4.20
2019-01-14T07:22:03.840Z,4.20
2019-01-14T07:24:45.087Z,4.30
2019-01-14T07:27:26.567Z,4.20
2019-01-14T07:30:07.939Z,4.20
2019-01-14T07:32:49.207Z,4.20
2019-01-14T07:35:30.485Z,4.30
2019-01-14T07:38:11.673Z,4.30
2019-01-14T07:40:53.734Z,4.30
2019-01-14T07:43:34.931Z,4.30
2019-01-14T07:46:16.203Z,4.30
2019-01-14T07:48:57.459Z,4.30
2019-01-14T07:51:38.987Z,4.30
2019-01-14T07:54:20.358Z,4.30
2019-01-14T07:57:01.705Z,4.30
2019-01-14T07:59:43.791Z,4.30
2019-01-14T08:02:25.111Z,4.30
2019-01-14T08:05:06.367Z,4.30
2019-01-14T08:07:46.006Z,4.30
2019-01-14T08:10:27.875Z,4.30
2019-01-14T08:13:09.344Z,4.20
2019-01-14T08:15:50.626Z,4.30
2019-01-14T08:18:30.255Z,4.30
2019-01-14T08:21:11.687Z,4.30
2019-01-14T08:23:52.961Z,4.30
2019-01-14T08:26:32.692Z,4.30
2019-01-14T08:29:14.673Z,4.30
2019-01-14T08:31:56.143Z,4.40
2019-01-14T08:34:37.364Z,4.40
2019-01-14T08:37:18.583Z,4.40
2019-01-14T08:40:00.165Z,4.40
2019-01-14T08:42:41.797Z,4.40
2019-01-14T08:45:23.294Z,4.40
2019-01-14T08:48:04.782Z,4.50
2019-01-14T08:50:44.342Z,4.40
2019-01-14T08:53:23.984Z,4.50
2019-01-14T08:56:06.858Z,4.50
2019-01-14T08:58:48.237Z,4.50
2019-01-14T09:01:29.469Z,4.50
2019-01-14T09:04:11.095Z,4.50
2019-01-14T09:06:52.363Z,4.50
2019-01-14T09:09:33.927Z,4.50
2019-01-14T09:12:15.614Z,4.50
2019-01-14T09:14:56.867Z,4.50
2019-01-14T09:17:38.195Z,4.50
2019-01-14T09:20:19.887Z,4.50
2019-01-14T09:23:01.972Z,4.50
2019-01-14T09:25:43.316Z,4.60
2019-01-14T09:28:24.795Z,4.60
2019-01-14T09:31:06.115Z,4.60
2019-01-14T09:33:47.647Z,4.60
2019-01-14T09:36:29.639Z,4.60
2019-01-14T09:39:10.941Z,4.60
2019-01-14T09:41:52.192Z,4.60
2019-01-14T09:44:33.684Z,4.70
2019-01-14T09:47:13.327Z,4.70
2019-01-14T09:49:54.451Z,4.70
2019-01-14T09:52:35.807Z,4.70
2019-01-14T09:55:16.975Z,4.70
2019-01-14T09:57:58.247Z,4.70
2019-01-14T10:00:39.699Z,4.70
2019-01-14T10:03:21.811Z,4.70
2019-01-14T10:06:03.019Z,4.70
2019-01-14T10:08:44.239Z,4.70
2019-01-14T10:11:25.723Z,4.70
2019-01-14T10:14:05.498Z,4.70
2019-01-14T10:16:47.431Z,4.70
2019-01-14T10:19:28.887Z,4.80
2019-01-14T10:22:09.981Z,4.80
2019-01-14T10:24:49.655Z,4.90
2019-01-14T10:27:31.618Z,4.90
2019-01-14T10:30:12.987Z,5.00
2019-01-14T10:32:54.874Z,5.00
2019-01-14T10:35:36.639Z,5.10
2019-01-14T10:38:17.836Z,5.10
2019-01-14T10:40:58.990Z,5.10
2019-01-14T10:43:38.619Z,5.20
2019-01-14T10:46:20.631Z,5.20
2019-01-14T10:49:06.661Z,5.20
2019-01-14T10:51:45.126Z,5.20
2019-01-14T10:54:26.439Z,5.20
2019-01-14T10:57:08.367Z,5.20
2019-01-14T10:59:49.537Z,5.20
2019-01-14T11:02:31.314Z,5.20
2019-01-14T11:05:12.903Z,5.20
2019-01-14T11:07:54.999Z,5.20
2019-01-14T11:10:37.046Z,5.20
2019-01-14T11:13:19.185Z,5.20
2019-01-14T11:16:00.574Z,5.20
2019-01-14T11:18:44.238Z,5.10
2019-01-14T11:21:25.647Z,5.10
2019-01-14T11:27:06.683Z,5.10
2019-01-14T11:29:51.995Z,5.10
2019-01-14T11:32:34.062Z,5.10
2019-01-14T11:35:15.342Z,5.10
2019-01-14T11:37:54.904Z,5.10
2019-01-14T11:40:36.855Z,5.10
2019-01-14T11:43:18.055Z,5.00
2019-01-14T11:45:59.208Z,5.00
2019-01-14T11:48:40.387Z,5.00
2019-01-14T11:51:21.595Z,5.00
2019-01-14T11:54:01.147Z,5.00
2019-01-14T11:56:42.556Z,5.00
2019-01-14T11:59:23.855Z,5.00
2019-01-14T12:02:05.148Z,5.00
2019-01-14T12:04:47.051Z,5.00
2019-01-14T12:07:28.142Z,5.00
2019-01-14T12:10:09.523Z,5.00
2019-01-14T12:12:51.085Z,5.00
2019-01-14T12:15:32.619Z,5.00
2019-01-14T12:18:13.975Z,5.00
2019-01-14T12:20:55.518Z,4.90
2019-01-14T12:23:37.554Z,4.90
2019-01-14T12:26:18.925Z,4.90
2019-01-14T12:28:59.995Z,4.90
2019-01-14T12:31:41.786Z,4.90
2019-01-14T12:34:23.268Z,4.90
2019-01-14T12:37:05.007Z,4.90
2019-01-14T12:39:46.731Z,4.90
2019-01-14T12:42:28.011Z,4.90
2019-01-14T12:45:09.195Z,4.90
2019-01-14T12:47:50.690Z,4.90
2019-01-14T12:50:32.708Z,4.90
2019-01-14T12:56:13.783Z,4.90
2019-01-14T12:58:55.007Z,4.90
2019-01-14T13:01:36.462Z,4.90
2019-01-14T13:04:18.061Z,4.90
2019-01-14T13:06:59.306Z,4.90
2019-01-14T13:09:41.123Z,4.90
2019-01-14T13:12:22.619Z,4.90
2019-01-14T13:15:03.876Z,4.90
2019-01-14T13:17:43.454Z,4.90
2019-01-14T13:20:25.406Z,4.90
2019-01-14T13:23:04.979Z,4.90
2019-01-14T13:25:46.462Z,4.90
2019-01-14T13:28:28.019Z,4.90
2019-01-14T13:31:07.767Z,4.90
2019-01-14T13:33:49.099Z,4.90
2019-01-14T13:36:30.275Z,4.80
2019-01-14T13:39:10.810Z,4.90
2019-01-14T13:41:52.759Z,4.90
2019-01-14T13:44:34.126Z,4.80
2019-01-14T13:47:16.140Z,4.80
2019-01-14T13:49:57.655Z,4.90
2019-01-14T13:52:39.359Z,4.80
2019-01-14T13:55:20.602Z,4.80
2019-01-14T13:58:01.739Z,4.80
2019-01-14T14:00:43.067Z,4.80
2019-01-14T14:03:24.243Z,4.80
2019-01-14T14:06:05.647Z,4.80
2019-01-14T14:08:47.599Z,4.80
2019-01-14T14:11:28.811Z,4.80
2019-01-14T14:14:10.105Z,4.80
2019-01-14T14:16:52.197Z,4.80
2019-01-14T14:19:34.259Z,4.80
2019-01-14T14:22:15.659Z,4.80
2019-01-14T14:24:56.991Z,4.80
2019-01-14T14:27:38.496Z,4.80
2019-01-14T14:30:19.722Z,4.80
2019-01-14T14:33:01.776Z,4.80
2019-01-14T14:35:43.211Z,4.80
2019-01-14T14:38:24.459Z,4.80
2019-01-14T14:41:06.608Z,4.80
2019-01-14T14:43:47.851Z,4.80
2019-01-14T14:46:29.120Z,4.80
2019-01-14T14:49:10.486Z,4.80
2019-01-14T14:51:52.539Z,4.80
2019-01-14T14:54:33.787Z,4.80
2019-01-14T14:57:15.251Z,4.80
2019-01-14T14:59:56.494Z,4.80
2019-01-14T15:02:38.419Z,4.80
2019-01-14T15:05:19.702Z,4.70
2019-01-14T15:08:01.006Z,4.70
2019-01-14T15:10:42.300Z,4.70
2019-01-14T15:13:21.955Z,4.70
2019-01-14T15:16:01.567Z,4.70
2019-01-14T15:18:43.575Z,4.70
2019-01-14T15:21:25.618Z,4.70
2019-01-14T15:24:08.658Z,4.70
2019-01-14T15:26:48.275Z,4.70
2019-01-14T15:29:30.079Z,4.70
2019-01-14T15:32:12.148Z,4.70
2019-01-14T15:34:53.548Z,4.60
2019-01-14T15:37:34.768Z,4.60
2019-01-14T15:40:16.454Z,4.60
2019-01-14T15:42:57.871Z,4.60
2019-01-14T15:45:39.438Z,4.60
2019-01-14T15:48:20.950Z,4.60
2019-01-14T15:51:02.432Z,4.60
2019-01-14T15:53:44.371Z,4.60
2019-01-14T15:56:25.915Z,4.60
2019-01-14T15:59:07.465Z,4.60
2019-01-14T16:01:49.143Z,4.60
2019-01-14T16:04:31.190Z,4.60
2019-01-14T16:07:12.823Z,4.60
2019-01-14T16:09:54.116Z,4.60
2019-01-14T16:12:36.123Z,4.60
2019-01-14T16:15:17.787Z,4.60
2019-01-14T16:17:59.363Z,4.60
2019-01-14T16:20:38.948Z,4.60
2019-01-14T16:23:20.975Z,4.60
2019-01-14T16:26:02.640Z,4.60
2019-01-14T16:28:42.287Z,4.60
2019-01-14T16:31:24.104Z,4.60
2019-01-14T16:34:05.815Z,4.60
2019-01-14T16:36:47.127Z,4.60
2019-01-14T16:39:28.678Z,4.60
2019-01-14T16:42:11.689Z,4.60
2019-01-14T16:44:52.987Z,4.60
2019-01-14T16:47:34.903Z,4.60
2019-01-14T16:50:16.767Z,4.60
2019-01-14T16:52:58.068Z,4.60
2019-01-14T16:55:41.056Z,4.60
2019-01-14T16:58:22.836Z,4.60
2019-01-14T17:01:04.401Z,4.60
2019-01-14T17:03:45.865Z,4.60
2019-01-14T17:06:27.015Z,4.60
2019-01-14T17:09:08.421Z,4.60
2019-01-14T17:11:49.803Z,4.60
2019-01-14T17:14:31.027Z,4.60
2019-01-14T17:17:10.583Z,4.60
2019-01-14T17:19:52.615Z,4.60
2019-01-14T17:22:34.099Z,4.60
2019-01-14T17:25:15.427Z,4.60
2019-01-14T17:27:56.694Z,4.60
2019-01-14T17:30:38.096Z,4.60
2019-01-14T17:33:19.680Z,4.60
2019-01-14T17:36:01.283Z,4.60
2019-01-14T17:38:40.855Z,4.60
2019-01-14T17:41:23.095Z,4.60
2019-01-14T17:44:04.300Z,4.60
2019-01-14T17:46:45.785Z,4.60
2019-01-14T17:49:27.070Z,4.60
2019-01-14T17:52:08.635Z,4.60
2019-01-14T17:54:50.659Z,4.60
2019-01-14T17:57:31.960Z,4.60
2019-01-14T18:00:13.407Z,4.70
2019-01-14T18:02:54.736Z,4.70
2019-01-14T18:05:36.776Z,4.70
2019-01-14T18:08:18.175Z,4.70
2019-01-14T18:11:01.822Z,4.70
2019-01-14T18:13:43.457Z,4.70
2019-01-14T18:16:24.659Z,4.70
2019-01-14T18:19:05.821Z,4.70
2019-01-14T18:21:47.831Z,4.70
2019-01-14T18:24:29.162Z,4.70
2019-01-14T18:27:08.800Z,4.70
2019-01-14T18:29:49.962Z,4.70
2019-01-14T18:32:31.151Z,4.70
2019-01-14T18:35:12.591Z,4.70
2019-01-14T18:37:53.723Z,4.70
2019-01-14T18:40:35.926Z,4.70
2019-01-14T18:43:17.247Z,4.70
2019-01-14T18:45:58.555Z,4.70
2019-01-14T18:48:38.127Z,4.70
2019-01-14T18:51:20.164Z,4.70
2019-01-14T18:54:01.699Z,4.70
2019-01-14T18:56:42.943Z,4.60
2019-01-14T18:59:24.086Z,4.70
2019-01-14T19:02:05.245Z,4.70
2019-01-14T19:04:46.455Z,4.60
2019-01-14T19:07:27.977Z,4.70
2019-01-14T19:10:09.363Z,4.70
2019-01-14T19:12:51.466Z,4.60
2019-01-14T19:15:33.972Z,4.60
2019-01-14T19:18:15.307Z,4.60
2019-01-14T19:20:56.667Z,4.60
2019-01-14T19:23:36.195Z,4.60
2019-01-14T19:26:18.082Z,4.60
2019-01-14T19:31:38.214Z,4.60
2019-01-14T19:34:19.415Z,4.60
2019-01-14T19:37:00.755Z,4.60
2019-01-14T19:39:41.972Z,4.60
2019-01-14T19:42:23.466Z,4.60
2019-01-14T19:45:05.534Z,4.60
2019-01-14T19:47:46.933Z,4.60
2019-01-14T19:50:28.298Z,4.60
2019-01-14T19:53:09.631Z,4.60
2019-01-14T19:55:50.947Z,4.60
2019-01-14T19:58:32.468Z,4.60
2019-01-14T20:01:13.735Z,4.60
2019-01-14T20:03:53.460Z,4.60
2019-01-14T20:06:33.075Z,4.60
2019-01-14T20:09:15.139Z,4.60
2019-01-14T20:11:56.305Z,4.60
2019-01-14T20:14:37.559Z,4.60
2019-01-14T20:17:18.815Z,4.60
2019-01-14T20:20:00.253Z,4.60
2019-01-14T20:22:41.550Z,4.60
2019-01-14T20:25:21.131Z,4.60
2019-01-14T20:28:03.223Z,4.60
2019-01-14T20:33:23.469Z,4.50
2019-01-14T20:36:04.691Z,4.50
2019-01-14T20:38:45.967Z,4.50
2019-01-14T20:41:27.514Z,4.50
2019-01-14T20:44:09.690Z,4.50
2019-01-14T20:46:51.247Z,4.50
2019-01-14T20:49:33.198Z,4.50
2019-01-14T20:52:15.278Z,4.50
2019-01-14T20:54:56.715Z,4.50
2019-01-14T20:57:38.070Z,4.50
2019-01-14T21:00:20.794Z,4.50
2019-01-14T21:03:02.562Z,4.50
2019-01-14T21:05:42.067Z,4.50
2019-01-14T21:08:24.030Z,4.50
2019-01-14T21:11:05.831Z,4.50
2019-01-14T21:13:47.390Z,4.50
2019-01-14T21:16:28.720Z,4.50
2019-01-14T21:19:10.055Z,4.50
2019-01-14T21:21:52.019Z,4.50
2019-01-14T21:27:15.567Z,4.50
2019-01-14T21:29:57.262Z,4.50
2019-01-14T21:32:38.683Z,4.50
2019-01-14T21:35:20.215Z,4.50
2019-01-14T21:38:01.459Z,4.50
2019-01-14T21:40:42.844Z,4.50
2019-01-14T21:43:24.282Z,4.50
2019-01-14T21:46:06.247Z,4.50
2019-01-14T21:48:47.707Z,4.50
2019-01-14T21:51:29.044Z,4.50
2019-01-14T21:54:10.455Z,4.50
2019-01-14T21:56:51.743Z,4.50
2019-01-14T21:59:32.884Z,4.50
2019-01-14T22:02:14.446Z,4.50
2019-01-14T22:04:55.639Z,4.40
2019-01-14T22:07:37.135Z,4.40
2019-01-14T22:10:18.350Z,4.40
2019-01-14T22:12:59.999Z,4.40
2019-01-14T22:15:41.591Z,4.40
2019-01-14T22:18:22.835Z,4.40
2019-01-14T22:21:04.419Z,4.40
2019-01-14T22:23:46.195Z,4.40
2019-01-14T22:26:27.687Z,4.40
2019-01-14T22:29:09.088Z,4.40
2019-01-14T22:31:50.434Z,4.40
2019-01-14T22:34:31.811Z,4.40
2019-01-14T22:37:13.194Z,4.40
2019-01-14T22:39:55.603Z,4.40
2019-01-14T22:42:36.961Z,4.40
2019-01-14T22:45:18.190Z,4.40
2019-01-14T22:47:59.695Z,4.40
2019-01-14T22:50:39.299Z,4.40
2019-01-14T22:53:21.254Z,4.40
2019-01-14T22:56:03.316Z,4.40
2019-01-14T22:58:44.651Z,4.40
2019-01-14T23:01:27.459Z,4.40
2019-01-14T23:04:08.711Z,4.40
2019-01-14T23:06:49.912Z,4.40
2019-01-14T23:09:31.275Z,4.40
2019-01-14T23:12:13.314Z,4.40
2019-01-14T23:14:54.975Z,4.40
2019-01-14T23:17:36.319Z,4.40
2019-01-14T23:20:17.754Z,4.40
2019-01-14T23:22:57.423Z,4.40
2019-01-14T23:25:39.531Z,4.40
2019-01-14T23:28:21.378Z,4.40
2019-01-14T23:31:02.895Z,4.40
2019-01-14T23:33:44.395Z,4.40
2019-01-14T23:36:23.950Z,4.40
2019-01-14T23:39:07.014Z,4.40
2019-01-14T23:41:48.983Z,4.40
2019-01-14T23:44:30.495Z,4.40
2019-01-14T23:47:11.711Z,4.40
2019-01-14T23:49:51.315Z,4.40
2019-01-14T23:52:33.132Z,4.40
2019-01-14T23:55:14.309Z,4.40
2019-01-14T23:57:55.583Z,4.40
